sensor_id;sensor_type;location;lat;lon;timestamp;pressure;altitude;pressure_sealevel;temperature;humidity
67931;BME280;63902;52.000;5.954;2023-02-16T00:00:04;102004.72;;;4.78;95.05
67931;BME280;63902;52.000;5.954;2023-02-16T00:01:15;101997.69;;;4.78;95.09
67931;BME280;63902;52.000;5.954;2023-02-16T00:02:16;102003.84;;;4.77;94.83
67931;BME280;63902;52.000;5.954;2023-02-16T00:03:18;101997.72;;;4.80;95.07
67931;BME280;63902;52.000;5.954;2023-02-16T00:04:21;101988.06;;;4.77;94.79
67931;BME280;63902;52.000;5.954;2023-02-16T00:05:24;101987.19;;;4.74;94.91
67931;BME280;63902;52.000;5.954;2023-02-16T00:06:26;101983.66;;;4.70;95.13
67931;BME280;63902;52.000;5.954;2023-02-16T00:07:27;101985.41;;;4.72;95.28
67931;BME280;63902;52.000;5.954;2023-02-16T00:08:27;101987.16;;;4.72;95.26
67931;BME280;63902;52.000;5.954;2023-02-16T00:09:28;101985.41;;;4.72;95.35
67931;BME280;63902;52.000;5.954;2023-02-16T00:10:30;101986.28;;;4.73;95.23
67931;BME280;63902;52.000;5.954;2023-02-16T00:11:33;101990.66;;;4.66;95.21
67931;BME280;63902;52.000;5.954;2023-02-16T00:12:34;101995.94;;;4.69;95.07
67931;BME280;63902;52.000;5.954;2023-02-16T00:13:35;101995.94;;;4.69;95.16
67931;BME280;63902;52.000;5.954;2023-02-16T00:14:37;101992.44;;;4.72;95.15
67931;BME280;63902;52.000;5.954;2023-02-16T00:15:38;101986.31;;;4.68;95.06
67931;BME280;63902;52.000;5.954;2023-02-16T00:16:40;102003.81;;;4.72;95.14
67931;BME280;63902;52.000;5.954;2023-02-16T00:17:41;101986.28;;;4.65;95.22
67931;BME280;63902;52.000;5.954;2023-02-16T00:18:41;101984.53;;;4.66;95.24
67931;BME280;63902;52.000;5.954;2023-02-16T00:19:43;101976.63;;;4.55;95.24
67931;BME280;63902;52.000;5.954;2023-02-16T00:20:44;101996.78;;;4.70;95.37
67931;BME280;63902;52.000;5.954;2023-02-16T00:21:45;101995.03;;;4.67;95.45
67931;BME280;63902;52.000;5.954;2023-02-16T00:22:45;102000.28;;;4.67;95.40
67931;BME280;63902;52.000;5.954;2023-02-16T00:23:46;101995.06;;;4.66;95.12
67931;BME280;63902;52.000;5.954;2023-02-16T00:24:46;101995.03;;;4.64;95.22
67931;BME280;63902;52.000;5.954;2023-02-16T00:25:47;101991.56;;;4.62;95.46
67931;BME280;63902;52.000;5.954;2023-02-16T00:26:48;101988.03;;;4.65;95.69
67931;BME280;63902;52.000;5.954;2023-02-16T00:27:48;101995.03;;;4.61;95.51
67931;BME280;63902;52.000;5.954;2023-02-16T00:28:50;101983.66;;;4.58;95.31
67931;BME280;63902;52.000;5.954;2023-02-16T00:29:51;101996.81;;;4.62;95.68
67931;BME280;63902;52.000;5.954;2023-02-16T00:30:52;102007.31;;;4.62;95.37
67931;BME280;63902;52.000;5.954;2023-02-16T00:31:53;102000.28;;;4.61;95.35
67931;BME280;63902;52.000;5.954;2023-02-16T00:32:54;101999.41;;;4.59;95.37
67931;BME280;63902;52.000;5.954;2023-02-16T00:33:54;102001.16;;;4.59;95.62
67931;BME280;63902;52.000;5.954;2023-02-16T00:34:56;101994.13;;;4.56;95.46
67931;BME280;63902;52.000;5.954;2023-02-16T00:35:57;101967.84;;;4.41;95.66
67931;BME280;63902;52.000;5.954;2023-02-16T00:36:59;101989.75;;;4.52;95.47
67931;BME280;63902;52.000;5.954;2023-02-16T00:38:00;101991.50;;;4.53;95.72
67931;BME280;63902;52.000;5.954;2023-02-16T00:39:00;101989.75;;;4.52;95.43
67931;BME280;63902;52.000;5.954;2023-02-16T00:40:01;101996.75;;;4.48;95.61
67931;BME280;63902;52.000;5.954;2023-02-16T00:41:01;101978.31;;;4.39;95.62
67931;BME280;63902;52.000;5.954;2023-02-16T00:42:04;101992.38;;;4.49;96.17
67931;BME280;63902;52.000;5.954;2023-02-16T00:43:05;101994.13;;;4.50;95.77
67931;BME280;63902;52.000;5.954;2023-02-16T00:44:12;101993.25;;;4.49;95.59
67931;BME280;63902;52.000;5.954;2023-02-16T00:45:16;101985.34;;;4.40;95.83
67931;BME280;63902;52.000;5.954;2023-02-16T00:46:17;101982.69;;;4.33;95.89
67931;BME280;63902;52.000;5.954;2023-02-16T00:47:19;101995.84;;;4.36;96.00
67931;BME280;63902;52.000;5.954;2023-02-16T00:48:21;101987.97;;;4.34;96.10
67931;BME280;63902;52.000;5.954;2023-02-16T00:49:21;101992.31;;;4.29;96.56
67931;BME280;63902;52.000;5.954;2023-02-16T00:50:26;101994.94;;;4.28;96.32
67931;BME280;63902;52.000;5.954;2023-02-16T00:51:27;101994.94;;;4.26;96.36
67931;BME280;63902;52.000;5.954;2023-02-16T00:52:32;101991.41;;;4.24;96.29
67931;BME280;63902;52.000;5.954;2023-02-16T00:53:33;101994.03;;;4.22;96.51
67931;BME280;63902;52.000;5.954;2023-02-16T00:54:33;101987.03;;;4.18;96.94
67931;BME280;63902;52.000;5.954;2023-02-16T00:55:35;101997.53;;;4.21;96.89
67931;BME280;63902;52.000;5.954;2023-02-16T00:56:36;101994.88;;;4.20;96.82
67931;BME280;63902;52.000;5.954;2023-02-16T00:57:39;101990.50;;;4.16;96.64
67931;BME280;63902;52.000;5.954;2023-02-16T00:58:40;101994.88;;;4.14;96.57
67931;BME280;63902;52.000;5.954;2023-02-16T00:59:40;101990.47;;;4.11;96.69
67931;BME280;63902;52.000;5.954;2023-02-16T01:00:45;101976.41;;;3.97;96.97
67931;BME280;63902;52.000;5.954;2023-02-16T01:01:47;101972.91;;;3.93;96.96
67931;BME280;63902;52.000;5.954;2023-02-16T01:02:49;101993.97;;;4.04;97.33
67931;BME280;63902;52.000;5.954;2023-02-16T01:03:50;101989.56;;;4.01;97.04
67931;BME280;63902;52.000;5.954;2023-02-16T01:04:51;101985.19;;;4.02;97.41
67931;BME280;63902;52.000;5.954;2023-02-16T01:05:53;101986.06;;;4.01;97.31
67931;BME280;63902;52.000;5.954;2023-02-16T01:06:54;101988.69;;;3.98;97.18
67931;BME280;63902;52.000;5.954;2023-02-16T01:07:54;101986.03;;;3.96;97.58
67931;BME280;63902;52.000;5.954;2023-02-16T01:09:02;101980.78;;;3.93;97.36
67931;BME280;63902;52.000;5.954;2023-02-16T01:10:06;101988.66;;;3.96;97.42
67931;BME280;63902;52.000;5.954;2023-02-16T01:11:07;101982.53;;;3.96;97.39
67931;BME280;63902;52.000;5.954;2023-02-16T01:12:12;101979.94;;;3.96;97.33
67931;BME280;63902;52.000;5.954;2023-02-16T01:13:14;101981.69;;;3.95;97.43
67931;BME280;63902;52.000;5.954;2023-02-16T01:14:14;101978.16;;;3.95;97.37
67931;BME280;63902;52.000;5.954;2023-02-16T01:15:17;101979.03;;;3.92;97.23
67931;BME280;63902;52.000;5.954;2023-02-16T01:16:23;101984.25;;;3.89;97.40
67931;BME280;63902;52.000;5.954;2023-02-16T01:17:24;101974.56;;;3.80;97.49
67931;BME280;63902;52.000;5.954;2023-02-16T01:18:25;101989.50;;;3.85;97.91
67931;BME280;63902;52.000;5.954;2023-02-16T01:19:25;101985.09;;;3.84;97.48
67931;BME280;63902;52.000;5.954;2023-02-16T01:20:27;101977.22;;;3.82;97.48
67931;BME280;63902;52.000;5.954;2023-02-16T01:21:29;101972.81;;;3.75;97.67
67931;BME280;63902;52.000;5.954;2023-02-16T01:22:29;101980.69;;;3.73;97.84
67931;BME280;63902;52.000;5.954;2023-02-16T01:23:30;101978.88;;;3.69;98.30
67931;BME280;63902;52.000;5.954;2023-02-16T01:24:30;101988.50;;;3.64;98.16
67931;BME280;63902;52.000;5.954;2023-02-16T01:25:31;101985.84;;;3.59;98.21
67931;BME280;63902;52.000;5.954;2023-02-16T01:26:36;101980.56;;;3.55;98.31
67931;BME280;63902;52.000;5.954;2023-02-16T01:27:37;101973.53;;;3.48;98.82
67931;BME280;63902;52.000;5.954;2023-02-16T01:28:38;101977.03;;;3.48;98.64
67931;BME280;63902;52.000;5.954;2023-02-16T01:29:38;101979.63;;;3.45;98.67
67931;BME280;63902;52.000;5.954;2023-02-16T01:30:39;101980.47;;;3.44;98.99
67931;BME280;63902;52.000;5.954;2023-02-16T01:31:40;101979.59;;;3.41;98.86
67931;BME280;63902;52.000;5.954;2023-02-16T01:32:40;101976.03;;;3.32;98.99
67931;BME280;63902;52.000;5.954;2023-02-16T01:33:41;101981.28;;;3.35;99.28
67931;BME280;63902;52.000;5.954;2023-02-16T01:34:42;101979.53;;;3.31;99.12
67931;BME280;63902;52.000;5.954;2023-02-16T01:35:43;101969.88;;;3.27;99.39
67931;BME280;63902;52.000;5.954;2023-02-16T01:36:46;101979.50;;;3.25;99.32
67931;BME280;63902;52.000;5.954;2023-02-16T01:37:47;101968.97;;;3.24;99.37
67931;BME280;63902;52.000;5.954;2023-02-16T01:38:48;101970.72;;;3.23;99.42
67931;BME280;63902;52.000;5.954;2023-02-16T01:39:48;101966.31;;;3.18;99.43
67931;BME280;63902;52.000;5.954;2023-02-16T01:40:54;101973.31;;;3.20;99.47
67931;BME280;63902;52.000;5.954;2023-02-16T01:42:12;101967.19;;;3.18;99.75
67931;BME280;63902;52.000;5.954;2023-02-16T01:43:20;101965.44;;;3.17;99.81
67931;BME280;63902;52.000;5.954;2023-02-16T01:44:23;101966.25;;;3.13;99.76
67931;BME280;63902;52.000;5.954;2023-02-16T01:45:31;101969.75;;;3.09;99.79
67931;BME280;63902;52.000;5.954;2023-02-16T01:46:37;101969.72;;;3.07;99.56
67931;BME280;63902;52.000;5.954;2023-02-16T01:47:41;101936.38;;;2.89;99.58
67931;BME280;63902;52.000;5.954;2023-02-16T01:48:45;101957.44;;;3.02;99.91
67931;BME280;63902;52.000;5.954;2023-02-16T01:49:45;101945.97;;;2.86;99.73
67931;BME280;63902;52.000;5.954;2023-02-16T01:50:48;101967.06;;;3.00;99.93
67931;BME280;63902;52.000;5.954;2023-02-16T01:51:57;101960.91;;;2.99;100.00
67931;BME280;63902;52.000;5.954;2023-02-16T01:53:08;101960.03;;;2.99;100.00
67931;BME280;63902;52.000;5.954;2023-02-16T01:54:17;101951.31;;;3.00;99.52
67931;BME280;63902;52.000;5.954;2023-02-16T01:55:23;101952.19;;;3.00;100.00
67931;BME280;63902;52.000;5.954;2023-02-16T01:56:31;101950.41;;;2.99;99.76
67931;BME280;63902;52.000;5.954;2023-02-16T01:57:38;101948.66;;;2.97;99.60
67931;BME280;63902;52.000;5.954;2023-02-16T01:58:44;101931.09;;;2.83;100.00
67931;BME280;63902;52.000;5.954;2023-02-16T02:00:11;101944.22;;;2.88;99.82
67931;BME280;63902;52.000;5.954;2023-02-16T02:01:36;101938.97;;;2.83;100.00
67931;BME280;63902;52.000;5.954;2023-02-16T02:02:40;101924.91;;;2.75;99.88
67931;BME280;63902;52.000;5.954;2023-02-16T02:03:41;101944.16;;;2.80;99.74
67931;BME280;63902;52.000;5.954;2023-02-16T02:04:44;101939.75;;;2.76;100.00
67931;BME280;63902;52.000;5.954;2023-02-16T02:05:47;101913.41;;;2.59;99.91
67931;BME280;63902;52.000;5.954;2023-02-16T02:06:47;101921.28;;;2.61;100.00
67931;BME280;63902;52.000;5.954;2023-02-16T02:07:54;101937.03;;;2.65;100.00
67931;BME280;63902;52.000;5.954;2023-02-16T02:09:02;101956.31;;;2.72;100.00
67931;BME280;63902;52.000;5.954;2023-02-16T02:10:07;101943.19;;;2.69;100.00
67931;BME280;63902;52.000;5.954;2023-02-16T02:11:12;101911.56;;;2.51;99.92
67931;BME280;63902;52.000;5.954;2023-02-16T02:12:22;101958.91;;;2.69;99.93
67931;BME280;63902;52.000;5.954;2023-02-16T02:13:28;101945.78;;;2.67;100.00
67931;BME280;63902;52.000;5.954;2023-02-16T02:14:34;101934.38;;;2.61;100.00
67931;BME280;63902;52.000;5.954;2023-02-16T02:15:36;101947.50;;;2.64;100.00
67931;BME280;63902;52.000;5.954;2023-02-16T02:16:36;101943.09;;;2.63;100.00
67931;BME280;63902;52.000;5.954;2023-02-16T02:17:37;101937.00;;;2.61;100.00
67931;BME280;63902;52.000;5.954;2023-02-16T02:18:38;101931.69;;;2.53;100.00
67931;BME280;63902;52.000;5.954;2023-02-16T02:19:46;101941.28;;;2.54;100.00
67931;BME280;63902;52.000;5.954;2023-02-16T02:21:01;101934.25;;;2.49;100.00
67931;BME280;63902;52.000;5.954;2023-02-16T02:22:29;101935.13;;;2.47;100.00
67931;BME280;63902;52.000;5.954;2023-02-16T02:24:11;101938.56;;;2.43;100.00
67931;BME280;63902;52.000;5.954;2023-02-16T02:25:44;101928.91;;;2.39;100.00
67931;BME280;63902;52.000;5.954;2023-02-16T02:27:16;101937.69;;;2.41;100.00
67931;BME280;63902;52.000;5.954;2023-02-16T02:28:23;101928.94;;;2.41;100.00
67931;BME280;63902;52.000;5.954;2023-02-16T02:29:39;101926.34;;;2.42;100.00
67931;BME280;63902;52.000;5.954;2023-02-16T02:30:46;101928.94;;;2.42;100.00
67931;BME280;63902;52.000;5.954;2023-02-16T02:31:57;101931.56;;;2.42;100.00
67931;BME280;63902;52.000;5.954;2023-02-16T02:33:20;101921.06;;;2.39;100.00
67931;BME280;63902;52.000;5.954;2023-02-16T02:34:37;101930.63;;;2.37;100.00
67931;BME280;63902;52.000;5.954;2023-02-16T02:35:48;101922.75;;;2.34;100.00
67931;BME280;63902;52.000;5.954;2023-02-16T02:36:55;101927.97;;;2.31;100.00
67931;BME280;63902;52.000;5.954;2023-02-16T02:38:04;101927.06;;;2.29;100.00
67931;BME280;63902;52.000;5.954;2023-02-16T02:39:19;101925.31;;;2.28;100.00
67931;BME280;63902;52.000;5.954;2023-02-16T02:40:32;101920.91;;;2.26;100.00
67931;BME280;63902;52.000;5.954;2023-02-16T02:41:40;101925.31;;;2.28;100.00
67931;BME280;63902;52.000;5.954;2023-02-16T02:42:50;101919.16;;;2.26;100.00
67931;BME280;63902;52.000;5.954;2023-02-16T02:43:56;101894.56;;;2.09;100.00
67931;BME280;63902;52.000;5.954;2023-02-16T02:45:01;101924.38;;;2.23;100.00
67931;BME280;63902;52.000;5.954;2023-02-16T02:46:06;101920.00;;;2.19;100.00
67931;BME280;63902;52.000;5.954;2023-02-16T02:47:08;101916.47;;;2.18;100.00
67931;BME280;63902;52.000;5.954;2023-02-16T02:48:09;101918.22;;;2.18;100.00
67931;BME280;63902;52.000;5.954;2023-02-16T02:49:09;101918.22;;;2.16;100.00
67931;BME280;63902;52.000;5.954;2023-02-16T02:50:31;101920.78;;;2.15;100.00
67931;BME280;63902;52.000;5.954;2023-02-16T02:51:33;101924.28;;;2.14;100.00
67931;BME280;63902;52.000;5.954;2023-02-16T02:52:34;101909.41;;;2.08;100.00
67931;BME280;63902;52.000;5.954;2023-02-16T02:53:37;101912.91;;;2.12;100.00
67931;BME280;63902;52.000;5.954;2023-02-16T02:54:40;101917.25;;;2.10;100.00
67931;BME280;63902;52.000;5.954;2023-02-16T02:55:43;101921.59;;;2.09;100.00
67931;BME280;63902;52.000;5.954;2023-02-16T02:56:49;101917.22;;;2.07;100.00
67931;BME280;63902;52.000;5.954;2023-02-16T02:57:52;101921.59;;;2.08;100.00
67931;BME280;63902;52.000;5.954;2023-02-16T02:58:55;101913.75;;;2.08;100.00
67931;BME280;63902;52.000;5.954;2023-02-16T03:00:00;101888.28;;;1.91;100.00
67931;BME280;63902;52.000;5.954;2023-02-16T03:01:02;101917.25;;;2.08;100.00
67931;BME280;63902;52.000;5.954;2023-02-16T03:02:03;101915.50;;;2.09;100.00
67931;BME280;63902;52.000;5.954;2023-02-16T03:03:07;101912.00;;;2.10;100.00
67931;BME280;63902;52.000;5.954;2023-02-16T03:04:10;101911.16;;;2.11;100.00
67931;BME280;63902;52.000;5.954;2023-02-16T03:05:14;101908.59;;;2.15;100.00
67931;BME280;63902;52.000;5.954;2023-02-16T03:06:19;101912.97;;;2.18;100.00
67931;BME280;63902;52.000;5.954;2023-02-16T03:07:22;101913.84;;;2.18;100.00
67931;BME280;63902;52.000;5.954;2023-02-16T03:08:26;101905.13;;;2.18;100.00
67931;BME280;63902;52.000;5.954;2023-02-16T03:09:28;101906.00;;;2.17;100.00
67931;BME280;63902;52.000;5.954;2023-02-16T03:10:30;101888.47;;;2.10;100.00
67931;BME280;63902;52.000;5.954;2023-02-16T03:11:32;101899.88;;;2.16;100.00
67931;BME280;63902;52.000;5.954;2023-02-16T03:12:33;101905.19;;;2.22;100.00
67931;BME280;63902;52.000;5.954;2023-02-16T03:13:39;101898.19;;;2.23;100.00
67931;BME280;63902;52.000;5.954;2023-02-16T03:14:43;101900.84;;;2.24;100.00
67931;BME280;63902;52.000;5.954;2023-02-16T03:15:47;101894.66;;;2.16;100.00
67931;BME280;63902;52.000;5.954;2023-02-16T03:16:52;101908.75;;;2.32;100.00
67931;BME280;63902;52.000;5.954;2023-02-16T03:17:54;101898.28;;;2.32;100.00
67931;BME280;63902;52.000;5.954;2023-02-16T03:18:56;101886.00;;;2.27;100.00
67931;BME280;63902;52.000;5.954;2023-02-16T03:19:58;101899.22;;;2.36;100.00
67931;BME280;63902;52.000;5.954;2023-02-16T03:21:01;101899.22;;;2.36;99.94
67931;BME280;63902;52.000;5.954;2023-02-16T03:22:03;101896.56;;;2.34;100.00
67931;BME280;63902;52.000;5.954;2023-02-16T03:23:04;101894.81;;;2.35;99.99
67931;BME280;63902;52.000;5.954;2023-02-16T03:24:08;101886.91;;;2.29;100.00
67931;BME280;63902;52.000;5.954;2023-02-16T03:25:11;101883.44;;;2.30;100.00
67931;BME280;63902;52.000;5.954;2023-02-16T03:26:13;101893.97;;;2.33;99.98
67931;BME280;63902;52.000;5.954;2023-02-16T03:27:16;101892.19;;;2.32;100.00
67931;BME280;63902;52.000;5.954;2023-02-16T03:28:20;101892.13;;;2.26;100.00
67931;BME280;63902;52.000;5.954;2023-02-16T03:29:24;101898.28;;;2.31;100.00
67931;BME280;63902;52.000;5.954;2023-02-16T03:30:26;101898.25;;;2.29;100.00
67931;BME280;63902;52.000;5.954;2023-02-16T03:31:29;101890.38;;;2.26;100.00
67931;BME280;63902;52.000;5.954;2023-02-16T03:32:31;101889.47;;;2.22;100.00
67931;BME280;63902;52.000;5.954;2023-02-16T03:33:32;101890.34;;;2.23;100.00
67931;BME280;63902;52.000;5.954;2023-02-16T03:34:34;101900.81;;;2.21;100.00
67931;BME280;63902;52.000;5.954;2023-02-16T03:35:35;101892.97;;;2.23;100.00
67931;BME280;63902;52.000;5.954;2023-02-16T03:36:39;101891.19;;;2.19;100.00
67931;BME280;63902;52.000;5.954;2023-02-16T03:37:41;101890.34;;;2.21;100.00
67931;BME280;63902;52.000;5.954;2023-02-16T03:38:42;101890.31;;;2.20;100.00
67931;BME280;63902;52.000;5.954;2023-02-16T03:39:42;101886.78;;;2.15;100.00
67931;BME280;63902;52.000;5.954;2023-02-16T03:40:44;101890.22;;;2.12;100.00
67931;BME280;63902;52.000;5.954;2023-02-16T03:41:49;101875.34;;;2.07;100.00
67931;BME280;63902;52.000;5.954;2023-02-16T03:42:50;101892.88;;;2.14;100.00
67931;BME280;63902;52.000;5.954;2023-02-16T03:43:51;101873.59;;;2.06;100.00
67931;BME280;63902;52.000;5.954;2023-02-16T03:44:53;101887.63;;;2.11;100.00
67931;BME280;63902;52.000;5.954;2023-02-16T03:45:54;101878.78;;;2.04;100.00
67931;BME280;63902;52.000;5.954;2023-02-16T03:46:54;101893.69;;;2.10;100.00
67931;BME280;63902;52.000;5.954;2023-02-16T03:47:55;101893.69;;;2.08;100.00
67931;BME280;63902;52.000;5.954;2023-02-16T03:48:55;101871.72;;;1.95;100.00
67931;BME280;63902;52.000;5.954;2023-02-16T03:49:55;101885.78;;;2.04;100.00
67931;BME280;63902;52.000;5.954;2023-02-16T03:50:56;101873.47;;;1.95;100.00
67931;BME280;63902;52.000;5.954;2023-02-16T03:51:56;101886.63;;;1.99;100.00
67931;BME280;63902;52.000;5.954;2023-02-16T03:52:57;101890.97;;;2.00;100.00
67931;BME280;63902;52.000;5.954;2023-02-16T03:53:57;101884.91;;;2.03;100.00
67931;BME280;63902;52.000;5.954;2023-02-16T03:54:58;101881.38;;;2.01;100.00
67931;BME280;63902;52.000;5.954;2023-02-16T03:55:58;101885.78;;;2.02;100.00
67931;BME280;63902;52.000;5.954;2023-02-16T03:56:59;101892.72;;;2.01;100.00
67931;BME280;63902;52.000;5.954;2023-02-16T03:57:59;101863.75;;;1.83;100.00
67931;BME280;63902;52.000;5.954;2023-02-16T03:59:00;101889.19;;;1.98;100.00
67931;BME280;63902;52.000;5.954;2023-02-16T04:00:02;101883.97;;;1.96;100.00
67931;BME280;63902;52.000;5.954;2023-02-16T04:01:02;101885.66;;;1.93;100.00
67931;BME280;63902;52.000;5.954;2023-02-16T04:02:03;101885.66;;;1.91;100.00
67931;BME280;63902;52.000;5.954;2023-02-16T04:03:05;101885.66;;;1.91;100.00
67931;BME280;63902;52.000;5.954;2023-02-16T04:04:05;101897.81;;;1.89;100.00
67931;BME280;63902;52.000;5.954;2023-02-16T04:05:06;101896.97;;;1.90;100.00
67931;BME280;63902;52.000;5.954;2023-02-16T04:06:07;101896.97;;;1.90;100.00
67931;BME280;63902;52.000;5.954;2023-02-16T04:07:07;101894.34;;;1.89;100.00
67931;BME280;63902;52.000;5.954;2023-02-16T04:08:09;101896.09;;;1.88;100.00
67931;BME280;63902;52.000;5.954;2023-02-16T04:09:09;101884.69;;;1.85;100.00
67931;BME280;63902;52.000;5.954;2023-02-16T04:10:10;101882.94;;;1.82;100.00
67931;BME280;63902;52.000;5.954;2023-02-16T04:11:10;101854.00;;;1.68;100.00
67931;BME280;63902;52.000;5.954;2023-02-16T04:12:11;101881.19;;;1.84;100.00
67931;BME280;63902;52.000;5.954;2023-02-16T04:13:11;101886.44;;;1.83;100.00
67931;BME280;63902;52.000;5.954;2023-02-16T04:14:12;101898.63;;;1.84;100.00
67931;BME280;63902;52.000;5.954;2023-02-16T04:15:15;101903.00;;;1.83;100.00
67931;BME280;63902;52.000;5.954;2023-02-16T04:16:16;101889.00;;;1.81;100.00
67931;BME280;63902;52.000;5.954;2023-02-16T04:17:17;101902.13;;;1.83;100.00
67931;BME280;63902;52.000;5.954;2023-02-16T04:18:17;101879.25;;;1.66;100.00
67931;BME280;63902;52.000;5.954;2023-02-16T04:19:18;101894.19;;;1.78;100.00
67931;BME280;63902;52.000;5.954;2023-02-16T04:20:20;101898.59;;;1.81;100.00
67931;BME280;63902;52.000;5.954;2023-02-16T04:21:21;101895.09;;;1.82;100.00
67931;BME280;63902;52.000;5.954;2023-02-16T04:22:21;101893.41;;;1.82;100.00
67931;BME280;63902;52.000;5.954;2023-02-16T04:23:22;101898.63;;;1.84;100.00
67931;BME280;63902;52.000;5.954;2023-02-16T04:24:22;101894.25;;;1.79;100.00
67931;BME280;63902;52.000;5.954;2023-02-16T04:25:23;101873.19;;;1.69;100.00
67931;BME280;63902;52.000;5.954;2023-02-16T04:26:23;101903.91;;;1.87;100.00
67931;BME280;63902;52.000;5.954;2023-02-16T04:27:24;101906.50;;;1.87;100.00
67931;BME280;63902;52.000;5.954;2023-02-16T04:28:25;101899.53;;;1.87;100.00
67931;BME280;63902;52.000;5.954;2023-02-16T04:29:25;101904.81;;;1.89;100.00
67931;BME280;63902;52.000;5.954;2023-02-16T04:30:29;101907.38;;;1.87;100.00
67931;BME280;63902;52.000;5.954;2023-02-16T04:31:29;101902.13;;;1.84;100.00
67931;BME280;63902;52.000;5.954;2023-02-16T04:32:30;101906.50;;;1.87;100.00
67931;BME280;63902;52.000;5.954;2023-02-16T04:33:30;101898.69;;;1.90;100.00
67931;BME280;63902;52.000;5.954;2023-02-16T04:34:31;101903.06;;;1.89;100.00
67931;BME280;63902;52.000;5.954;2023-02-16T04:35:31;101904.81;;;1.89;100.00
67931;BME280;63902;52.000;5.954;2023-02-16T04:36:32;101895.28;;;1.95;100.00
67931;BME280;63902;52.000;5.954;2023-02-16T04:37:32;101904.06;;;2.00;100.00
67931;BME280;63902;52.000;5.954;2023-02-16T04:38:33;101901.44;;;2.00;100.00
67931;BME280;63902;52.000;5.954;2023-02-16T04:39:33;101900.59;;;2.03;100.00
67931;BME280;63902;52.000;5.954;2023-02-16T04:40:34;101890.97;;;2.00;100.00
67931;BME280;63902;52.000;5.954;2023-02-16T04:41:34;101904.16;;;2.10;100.00
67931;BME280;63902;52.000;5.954;2023-02-16T04:42:35;101903.31;;;2.11;100.00
67931;BME280;63902;52.000;5.954;2023-02-16T04:43:35;101899.81;;;2.12;100.00
67931;BME280;63902;52.000;5.954;2023-02-16T04:44:36;101903.31;;;2.12;100.00
67931;BME280;63902;52.000;5.954;2023-02-16T04:45:38;101898.97;;;2.13;100.00
67931;BME280;63902;52.000;5.954;2023-02-16T04:46:38;101901.56;;;2.13;100.00
67931;BME280;63902;52.000;5.954;2023-02-16T04:47:39;101895.44;;;2.08;100.00
67931;BME280;63902;52.000;5.954;2023-02-16T04:48:39;101896.31;;;2.10;100.00
67931;BME280;63902;52.000;5.954;2023-02-16T04:49:40;101871.75;;;1.98;100.00
67931;BME280;63902;52.000;5.954;2023-02-16T04:50:40;101900.75;;;2.17;100.00
67931;BME280;63902;52.000;5.954;2023-02-16T04:51:41;101853.41;;;1.94;100.00
67931;BME280;63902;52.000;5.954;2023-02-16T04:52:41;101893.88;;;2.27;100.00
67931;BME280;63902;52.000;5.954;2023-02-16T04:53:42;101889.59;;;2.33;100.00
67931;BME280;63902;52.000;5.954;2023-02-16T04:54:42;101893.06;;;2.32;100.00
67931;BME280;63902;52.000;5.954;2023-02-16T04:55:45;101896.59;;;2.37;100.00
67931;BME280;63902;52.000;5.954;2023-02-16T04:56:46;101881.72;;;2.30;100.00
67931;BME280;63902;52.000;5.954;2023-02-16T04:57:47;101895.72;;;2.35;100.00
67931;BME280;63902;52.000;5.954;2023-02-16T04:58:47;101897.44;;;2.35;100.00
67931;BME280;63902;52.000;5.954;2023-02-16T04:59:48;101899.22;;;2.36;100.00
67931;BME280;63902;52.000;5.954;2023-02-16T05:00:49;101900.97;;;2.35;100.00
67931;BME280;63902;52.000;5.954;2023-02-16T05:01:50;101891.38;;;2.37;100.00
67931;BME280;63902;52.000;5.954;2023-02-16T05:02:50;101886.09;;;2.33;100.00
67931;BME280;63902;52.000;5.954;2023-02-16T05:03:51;101897.53;;;2.41;100.00
67931;BME280;63902;52.000;5.954;2023-02-16T05:04:52;101886.19;;;2.43;100.00
67931;BME280;63902;52.000;5.954;2023-02-16T05:05:52;101879.19;;;2.42;100.00
67931;BME280;63902;52.000;5.954;2023-02-16T05:06:53;101886.25;;;2.50;100.00
67931;BME280;63902;52.000;5.954;2023-02-16T05:07:53;101888.03;;;2.52;100.00
67931;BME280;63902;52.000;5.954;2023-02-16T05:08:53;101888.00;;;2.51;100.00
67931;BME280;63902;52.000;5.954;2023-02-16T05:09:54;101886.28;;;2.54;100.00
67931;BME280;63902;52.000;5.954;2023-02-16T05:10:54;101868.78;;;2.49;100.00
67931;BME280;63902;52.000;5.954;2023-02-16T05:11:55;101893.28;;;2.57;100.00
67931;BME280;63902;52.000;5.954;2023-02-16T05:12:55;101893.28;;;2.57;100.00
67931;BME280;63902;52.000;5.954;2023-02-16T05:13:56;101888.94;;;2.56;100.00
67931;BME280;63902;52.000;5.954;2023-02-16T05:14:56;101888.06;;;2.57;100.00
67931;BME280;63902;52.000;5.954;2023-02-16T05:15:58;101883.72;;;2.60;100.00
67931;BME280;63902;52.000;5.954;2023-02-16T05:16:59;101884.66;;;2.67;100.00
67931;BME280;63902;52.000;5.954;2023-02-16T05:17:59;101885.56;;;2.71;100.00
67931;BME280;63902;52.000;5.954;2023-02-16T05:19:00;101886.44;;;2.71;100.00
67931;BME280;63902;52.000;5.954;2023-02-16T05:20:00;101883.81;;;2.71;100.00
67931;BME280;63902;52.000;5.954;2023-02-16T05:21:01;101889.06;;;2.69;100.00
67931;BME280;63902;52.000;5.954;2023-02-16T05:22:01;101894.25;;;2.68;100.00
67931;BME280;63902;52.000;5.954;2023-02-16T05:23:02;101868.00;;;2.59;100.00
67931;BME280;63902;52.000;5.954;2023-02-16T05:24:04;101880.28;;;2.66;100.00
67931;BME280;63902;52.000;5.954;2023-02-16T05:25:05;101880.28;;;2.64;100.00
67931;BME280;63902;52.000;5.954;2023-02-16T05:26:06;101884.66;;;2.67;100.00
67931;BME280;63902;52.000;5.954;2023-02-16T05:27:10;101894.28;;;2.71;100.00
67931;BME280;63902;52.000;5.954;2023-02-16T05:28:11;101886.44;;;2.71;100.00
67931;BME280;63902;52.000;5.954;2023-02-16T05:29:11;101884.69;;;2.70;100.00
67931;BME280;63902;52.000;5.954;2023-02-16T05:30:13;101880.31;;;2.69;100.00